Time;durP1;ratioP1;P1;durP2;ratioP2;P2;SDS_P1;SDS_P2;PMS_P1;PMS_P2;Temp;Humidity;BMP_temperature;BMP_pressure;BME280_temperature;BME280_humidity;BME280_pressure;Samples;Min_cycle;Max_cycle;Signal;HPM_P1;HPM_P2
2021/05/15 10:49:33;;;;;;;73.95;70.75;;;;;;;;;;5090806;28;20594;-67
2021/05/15 10:52:09;;;;;;;97.82;93.57;;;;;;;;;;5090831;28;20187;-67
2021/05/15 10:54:36;;;;;;;104.25;99.65;;;;;;;;;;5090802;28;20191;-68
2021/05/15 10:57:07;;;;;;;101.45;96.85;;;;;;;;;;5090698;28;20178;-67
2021/05/15 10:59:33;;;;;;;98.13;93.82;;;;;;;;;;5090679;28;20633;-67
2021/05/15 11:02:00;;;;;;;103.90;99.30;;;;;;;;;;5090620;28;20250;-67
2021/05/15 11:04:27;;;;;;;111.40;106.40;;;;;;;;;;5090540;28;20172;-67
2021/05/15 11:07:06;;;;;;;140.25;133.75;;;;;;;;;;5090544;28;20168;-67
2021/05/15 11:09:52;;;;;;;107.57;102.80;;;;;;;;;;5090409;28;20191;-67
2021/05/15 11:23:48;;;;;;;46.72;44.85;;;;;;;;;;5090880;28;21020;-65
2021/05/15 11:26:19;;;;;;;46.85;44.95;;;;;;;;;;5090812;28;20171;-66
2021/05/15 11:28:45;;;;;;;49.97;47.97;;;;;;;;;;5089694;28;20213;-66
2021/05/15 11:31:12;;;;;;;56.75;54.35;;;;;;;;;;5089361;28;20167;-66
2021/05/15 11:33:39;;;;;;;79.38;75.80;;;;;;;;;;5090805;28;20507;-66
2021/05/15 11:36:05;;;;;;;78.40;75.00;;;;;;;;;;5090536;28;20177;-66
2021/05/15 11:38:32;;;;;;;87.35;83.55;;;;;;;;;;5089451;28;20176;-66
2021/05/15 11:41:01;;;;;;;90.05;86.13;;;;;;;;;;5090544;28;20168;-66
2021/05/15 11:43:31;;;;;;;85.47;81.78;;;;;;;;;;5090483;28;20240;-66
2021/05/15 11:45:58;;;;;;;97.10;92.85;;;;;;;;;;5089184;28;20537;-66
2021/05/15 11:48:25;;;;;;;109.63;104.78;;;;;;;;;;5089124;28;20172;-66
2021/05/15 11:50:58;;;;;;;92.47;88.45;;;;;;;;;;5090389;28;20246;-66
2021/05/15 11:53:24;;;;;;;107.70;102.95;;;;;;;;;;5090371;28;20160;-66
2021/05/15 11:55:51;;;;;;;113.28;108.25;;;;;;;;;;5090302;28;20653;-66
2021/05/15 11:58:17;;;;;;;120.32;114.95;;;;;;;;;;5090160;28;20698;-66
2021/05/15 12:00:44;;;;;;;121.93;116.50;;;;;;;;;;5090184;28;20254;-66
2021/05/15 12:03:10;;;;;;;126.95;119.82;;;;;;;;;;5089088;28;20288;-66
2021/05/15 12:05:36;;;;;;;127.85;122.13;;;;;;;;;;5090294;28;20164;-66
2021/05/15 12:08:09;;;;;;;127.35;121.68;;;;;;;;;;5090053;28;20171;-66
2021/05/15 12:10:35;;;;;;;129.00;123.25;;;;;;;;;;5089980;28;20195;-66
2021/05/15 12:13:02;;;;;;;139.75;133.45;;;;;;;;;;5088949;28;20195;-66
2021/05/15 12:15:29;;;;;;;141.98;135.50;;;;;;;;;;5089305;28;20199;-66
2021/05/15 12:17:57;;;;;;;153.75;146.80;;;;;;;;;;5088896;28;20722;-66
2021/05/15 12:20:38;;;;;;;151.52;144.68;;;;;;;;;;5089655;28;20258;-66
2021/05/15 12:23:08;;;;;;;140.52;134.20;;;;;;;;;;5089125;28;20219;-66
2021/05/15 12:25:35;;;;;;;147.88;141.18;;;;;;;;;;5089610;28;20204;-66
2021/05/15 12:28:01;;;;;;;153.93;146.95;;;;;;;;;;5089529;28;20202;-66
2021/05/15 12:30:28;;;;;;;168.27;160.65;;;;;;;;;;5089543;28;20222;-66
2021/05/15 12:33:04;;;;;;;169.07;161.38;;;;;;;;;;5087917;28;20175;-66
2021/05/15 12:35:30;;;;;;;155.75;148.68;;;;;;;;;;5075855;28;20175;-66
2021/05/15 12:37:57;;;;;;;157.35;150.05;;;;;;;;;;5075703;28;20191;-66
2021/05/15 12:40:26;;;;;;;157.23;150.05;;;;;;;;;;5075839;28;20169;-67
2021/05/15 12:42:52;;;;;;;172.02;164.23;;;;;;;;;;5075682;28;20614;-67
2021/05/15 12:45:18;;;;;;;173.18;165.30;;;;;;;;;;5075684;28;20211;-67
2021/05/15 12:47:45;;;;;;;170.25;162.48;;;;;;;;;;5075641;28;20188;-67
2021/05/15 12:50:27;;;;;;;173.65;165.73;;;;;;;;;;5075627;28;20164;-65
2021/05/15 12:53:10;;;;;;;171.32;163.57;;;;;;;;;;5075636;28;20168;-65
2021/05/15 12:55:47;;;;;;;166.80;159.20;;;;;;;;;;5075583;28;20176;-65
2021/05/15 12:58:13;;;;;;;164.30;156.60;;;;;;;;;;5075492;28;20180;-65
2021/05/15 13:00:39;;;;;;;170.95;163.20;;;;;;;;;;5075498;28;20544;-65
2021/05/15 13:03:05;;;;;;;182.98;174.75;;;;;;;;;;5075859;28;20238;-65
2021/05/15 13:05:33;;;;;;;175.05;167.13;;;;;;;;;;5075357;28;20322;-65
2021/05/15 13:08:03;;;;;;;179.00;170.93;;;;;;;;;;5075339;28;20213;-65
2021/05/15 13:10:30;;;;;;;170.68;162.93;;;;;;;;;;5075349;28;20575;-65
2021/05/15 13:12:56;;;;;;;202.48;192.10;;;;;;;;;;5075202;28;20179;-65
2021/05/15 13:15:22;;;;;;;185.60;177.23;;;;;;;;;;5075171;28;20172;-65
2021/05/15 13:17:48;;;;;;;205.10;195.85;;;;;;;;;;5075119;28;20207;-65
2021/05/15 13:20:14;;;;;;;226.32;216.15;;;;;;;;;;5075038;28;20248;-65
2021/05/15 13:22:40;;;;;;;217.73;207.93;;;;;;;;;;5074873;28;20230;-65
2021/05/15 13:25:06;;;;;;;221.20;211.27;;;;;;;;;;5075006;28;20514;-65
2021/05/15 13:27:32;;;;;;;245.85;234.65;;;;;;;;;;5075002;28;20173;-65
2021/05/15 13:29:58;;;;;;;263.70;251.75;;;;;;;;;;5074896;28;20171;-65
2021/05/15 13:32:25;;;;;;;274.25;261.80;;;;;;;;;;5074850;28;20172;-66
2021/05/15 13:34:51;;;;;;;286.30;273.23;;;;;;;;;;5074763;28;20168;-66
2021/05/15 13:37:17;;;;;;;270.95;258.70;;;;;;;;;;5074722;28;20195;-66
2021/05/15 13:39:43;;;;;;;285.75;272.70;;;;;;;;;;5073401;28;20259;-65
2021/05/15 13:42:09;;;;;;;272.77;260.42;;;;;;;;;;5074575;28;20716;-65
2021/05/15 13:44:35;;;;;;;251.15;239.57;;;;;;;;;;5074238;28;20172;-65
2021/05/15 13:47:01;;;;;;;257.85;246.15;;;;;;;;;;5072649;28;20169;-65
2021/05/15 13:49:27;;;;;;;256.58;245.00;;;;;;;;;;5074506;28;20183;-65
2021/05/15 13:51:54;;;;;;;192.85;184.15;;;;;;;;;;5074376;28;20204;-65
2021/05/15 13:54:20;;;;;;;182.07;173.68;;;;;;;;;;5074364;28;20695;-65
2021/05/15 13:56:46;;;;;;;147.65;140.93;;;;;;;;;;5074333;28;20172;-65
2021/05/15 13:59:12;;;;;;;139.52;133.23;;;;;;;;;;5074217;28;20243;-65
2021/05/15 14:01:38;;;;;;;127.20;121.55;;;;;;;;;;5074210;28;20246;-64
2021/05/15 14:04:04;;;;;;;116.78;111.40;;;;;;;;;;5074147;28;20165;-68
2021/05/15 14:06:30;;;;;;;121.18;115.75;;;;;;;;;;5074194;28;20160;-69
2021/05/15 14:08:56;;;;;;;101.78;97.28;;;;;;;;;;5074129;28;20260;-69
2021/05/15 14:11:25;;;;;;;97.97;93.68;;;;;;;;;;5074096;28;20290;-69
2021/05/15 14:13:51;;;;;;;88.88;84.88;;;;;;;;;;5073924;28;20172;-69
2021/05/15 14:16:17;;;;;;;102.43;97.95;;;;;;;;;;5073949;28;20160;-70
2021/05/15 14:18:43;;;;;;;91.35;87.38;;;;;;;;;;5073860;28;20272;-68
2021/05/15 14:21:09;;;;;;;104.15;99.57;;;;;;;;;;5073877;28;20247;-67
2021/05/15 14:23:35;;;;;;;96.32;92.10;;;;;;;;;;5073498;28;20220;-65
2021/05/15 14:26:01;;;;;;;101.88;97.40;;;;;;;;;;5073726;28;20220;-68
2021/05/15 14:28:27;;;;;;;92.22;88.18;;;;;;;;;;5072396;28;20629;-68
2021/05/15 14:30:53;;;;;;;97.15;92.88;;;;;;;;;;5073681;28;20177;-68
2021/05/15 14:33:18;;;;;;;101.95;97.43;;;;;;;;;;5073598;28;20164;-68
2021/05/15 14:35:44;;;;;;;105.22;100.25;;;;;;;;;;5073606;28;20262;-68
2021/05/15 14:38:10;;;;;;;104.45;99.80;;;;;;;;;;5073541;28;20179;-68
2021/05/15 14:40:37;;;;;;;119.20;113.88;;;;;;;;;;5073546;28;20164;-69
2021/05/15 14:43:04;;;;;;;121.15;115.78;;;;;;;;;;5073362;28;20196;-69
2021/05/15 14:45:29;;;;;;;129.85;124.03;;;;;;;;;;5073500;28;20161;-69
2021/05/15 14:47:55;;;;;;;132.23;126.28;;;;;;;;;;5073449;28;20210;-69
2021/05/15 14:50:21;;;;;;;139.63;133.35;;;;;;;;;;5073406;28;20214;-69
2021/05/15 14:52:47;;;;;;;132.40;126.47;;;;;;;;;;5073419;28;20168;-69
2021/05/15 14:55:14;;;;;;;143.20;136.70;;;;;;;;;;5073385;28;20172;-68
2021/05/15 14:57:40;;;;;;;142.75;136.32;;;;;;;;;;5073084;28;20344;-69
2021/05/15 15:00:08;;;;;;;134.60;128.60;;;;;;;;;;5073232;28;20169;-69
2021/05/15 15:02:34;;;;;;;146.75;140.13;;;;;;;;;;5073130;28;20204;-69
2021/05/15 15:05:00;;;;;;;132.15;126.25;;;;;;;;;;5073258;28;20179;-68
2021/05/15 15:07:28;;;;;;;124.15;118.55;;;;;;;;;;5073251;28;20247;-68
2021/05/15 15:26:00;;;;;;;70.45;67.45;;;;;;;;;;5050311;28;20544;-68
2021/05/15 15:28:26;;;;;;;85.43;81.72;;;;;;;;;;5050485;28;20188;-68
2021/05/15 15:30:52;;;;;;;98.03;93.72;;;;;;;;;;5065800;28;20646;-69
2021/05/15 15:33:18;;;;;;;93.20;89.13;;;;;;;;;;5050426;28;20168;-69
2021/05/15 15:35:44;;;;;;;101.38;96.93;;;;;;;;;;5050419;28;20177;-68
2021/05/15 15:38:10;;;;;;;99.35;94.97;;;;;;;;;;5050407;28;20173;-68
2021/05/15 15:40:37;;;;;;;99.47;95.13;;;;;;;;;;5050322;28;20197;-68
2021/05/15 16:08:46;;;;;;;52.95;50.78;;;;;;;;;;5090752;27;21115;-67
2021/05/15 16:11:17;;;;;;;62.45;59.75;;;;;;;;;;5090780;28;20171;-65
2021/05/15 16:13:43;;;;;;;72.72;69.63;;;;;;;;;;5089574;28;20613;-66
2021/05/15 16:16:09;;;;;;;79.15;75.72;;;;;;;;;;5089449;28;20267;-66
2021/05/15 16:18:35;;;;;;;94.18;90.07;;;;;;;;;;5089825;28;20176;-66
2021/05/15 16:21:01;;;;;;;101.82;97.32;;;;;;;;;;5090105;28;20172;-65
2021/05/15 16:23:27;;;;;;;96.50;92.15;;;;;;;;;;5089707;28;20172;-66
2021/05/15 16:25:53;;;;;;;99.40;94.97;;;;;;;;;;5090479;28;20171;-66
2021/05/15 16:28:19;;;;;;;97.10;92.85;;;;;;;;;;5088673;28;20199;-66
2021/05/15 16:30:45;;;;;;;100.20;95.75;;;;;;;;;;5090136;28;20203;-66
2021/05/15 16:33:11;;;;;;;99.95;95.53;;;;;;;;;;5090289;28;20195;-66
2021/05/15 16:35:44;;;;;;;100.68;96.28;;;;;;;;;;5090663;28;20195;-66
2021/05/15 16:38:12;;;;;;;102.63;97.88;;;;;;;;;;5090236;28;20196;-66
2021/05/15 16:40:38;;;;;;;97.93;93.63;;;;;;;;;;5090106;28;20176;-66
2021/05/15 16:43:04;;;;;;;106.28;101.60;;;;;;;;;;5090143;28;20259;-66
2021/05/15 17:25:25;;;;;;;56.13;53.83;;;;;;;;;;5090782;28;20537;-68
2021/05/15 17:27:51;;;;;;;69.00;66.05;;;;;;;;;;5090669;28;20217;-68
2021/05/15 17:30:17;;;;;;;82.47;78.90;;;;;;;;;;5089344;28;20248;-68
2021/05/15 17:32:43;;;;;;;90.90;86.93;;;;;;;;;;5090658;28;20166;-66
2021/05/15 17:35:09;;;;;;;93.38;89.25;;;;;;;;;;5089284;28;20596;-66
2021/05/15 17:37:36;;;;;;;101.05;96.60;;;;;;;;;;5090505;28;20205;-65
